createdAt,value
2024-02-06T00:01:17.742Z,17.25
2024-02-06T00:03:51.145Z,17.17
2024-02-06T00:06:23.132Z,20.52
2024-02-06T00:08:55.093Z,22.00
2024-02-06T00:11:26.967Z,20.42
2024-02-06T00:13:58.838Z,21.35
2024-02-06T00:16:30.781Z,25.70
2024-02-06T00:19:03.313Z,18.83
2024-02-06T00:21:35.293Z,18.95
2024-02-06T00:24:07.288Z,20.75
2024-02-06T00:26:39.181Z,19.42
2024-02-06T00:29:11.031Z,15.95
2024-02-06T00:31:42.876Z,13.00
2024-02-06T00:34:14.932Z,18.30
2024-02-06T00:36:47.234Z,14.65
2024-02-06T00:39:19.200Z,15.40
2024-02-06T00:41:51.132Z,19.70
2024-02-06T00:44:23.039Z,18.20
2024-02-06T00:46:55.257Z,16.05
2024-02-06T00:49:27.203Z,16.80
2024-02-06T00:51:59.151Z,13.10
2024-02-06T00:54:30.977Z,15.35
2024-02-06T00:57:02.848Z,15.77
2024-02-06T00:59:34.745Z,14.60
2024-02-06T01:02:07.638Z,16.20
2024-02-06T01:04:39.586Z,13.32
2024-02-06T01:07:11.523Z,14.73
2024-02-06T01:09:43.423Z,14.43
2024-02-06T01:12:15.259Z,15.50
2024-02-06T01:14:47.102Z,12.55
2024-02-06T01:17:20.333Z,16.50
2024-02-06T01:19:52.257Z,16.65
2024-02-06T01:22:24.255Z,13.30
2024-02-06T01:24:56.540Z,11.80
2024-02-06T01:27:29.046Z,15.90
2024-02-06T01:30:00.916Z,20.85
2024-02-06T01:32:32.746Z,20.05
2024-02-06T01:35:05.677Z,17.50
2024-02-06T01:37:37.645Z,13.20
2024-02-06T01:40:09.983Z,13.30
2024-02-06T01:42:41.891Z,16.10
2024-02-06T01:45:13.701Z,14.10
2024-02-06T01:47:46.317Z,13.25
2024-02-06T01:50:18.792Z,14.30
2024-02-06T01:52:53.157Z,12.52
2024-02-06T01:55:25.560Z,13.40
2024-02-06T01:57:57.638Z,13.85
2024-02-06T02:00:30.198Z,16.45
2024-02-06T02:03:02.803Z,12.20
2024-02-06T02:05:34.986Z,17.65
2024-02-06T02:08:07.489Z,11.32
2024-02-06T02:10:39.451Z,12.73
2024-02-06T02:13:11.597Z,12.27
2024-02-06T02:15:43.632Z,15.52
2024-02-06T02:18:15.633Z,15.80
2024-02-06T02:20:47.548Z,10.00
2024-02-06T02:23:25.411Z,9.60
2024-02-06T02:26:01.379Z,13.90
2024-02-06T02:28:33.454Z,14.23
2024-02-06T02:31:07.108Z,13.43
2024-02-06T02:33:39.580Z,9.15
2024-02-06T02:36:13.036Z,11.85
2024-02-06T02:38:45.381Z,11.82
2024-02-06T02:41:17.162Z,9.18
2024-02-06T02:43:49.342Z,9.32
2024-02-06T02:46:21.191Z,8.77
2024-02-06T02:48:53.162Z,6.93
2024-02-06T02:51:25.260Z,7.97
2024-02-06T02:53:57.123Z,9.57
2024-02-06T02:56:29.030Z,6.13
2024-02-06T02:59:00.886Z,7.43
2024-02-06T03:01:32.861Z,6.68
2024-02-06T03:04:04.987Z,9.88
2024-02-06T03:06:37.681Z,6.88
2024-02-06T03:09:09.654Z,6.22
2024-02-06T03:11:41.476Z,6.18
2024-02-06T03:14:14.316Z,3.25
2024-02-06T03:16:46.169Z,3.80
2024-02-06T03:19:18.115Z,6.22
2024-02-06T03:21:50.097Z,4.70
2024-02-06T03:24:28.713Z,7.22
2024-02-06T03:27:00.756Z,5.47
2024-02-06T03:29:32.689Z,4.22
2024-02-06T03:32:05.443Z,4.82
2024-02-06T03:34:37.484Z,4.65
2024-02-06T03:37:09.368Z,5.38
2024-02-06T03:39:41.248Z,3.17
2024-02-06T03:42:13.081Z,3.33
2024-02-06T03:44:45.318Z,8.60
2024-02-06T03:47:18.155Z,4.05
2024-02-06T03:49:50.134Z,3.28
2024-02-06T03:52:22.121Z,5.10
2024-02-06T03:54:54.195Z,5.10
2024-02-06T03:57:26.156Z,5.65
2024-02-06T03:59:58.058Z,4.53
2024-02-06T04:02:29.924Z,4.28
2024-02-06T04:05:02.955Z,5.05
2024-02-06T04:07:34.916Z,3.53
2024-02-06T04:10:07.303Z,4.45
2024-02-06T04:12:39.248Z,3.50
2024-02-06T04:15:11.326Z,5.72
2024-02-06T04:17:43.386Z,7.45
2024-02-06T04:20:15.256Z,5.15
2024-02-06T04:22:47.115Z,5.20
2024-02-06T04:25:19.057Z,6.40
2024-02-06T04:27:50.965Z,4.47
2024-02-06T04:30:22.831Z,8.88
2024-02-06T04:32:55.741Z,6.68
2024-02-06T04:35:27.857Z,7.47
2024-02-06T04:37:59.778Z,3.70
2024-02-06T04:40:31.731Z,6.40
2024-02-06T04:43:03.647Z,6.93
2024-02-06T04:45:35.716Z,4.60
2024-02-06T04:48:08.253Z,4.47
2024-02-06T04:50:40.150Z,4.85
2024-02-06T04:53:12.054Z,7.80
2024-02-06T04:55:43.914Z,7.43
2024-02-06T04:58:15.887Z,9.18
2024-02-06T05:00:47.752Z,7.00
2024-02-06T05:03:19.604Z,4.30
2024-02-06T05:05:51.397Z,6.03
2024-02-06T05:08:23.279Z,6.70
2024-02-06T05:10:55.287Z,5.15
2024-02-06T05:13:27.486Z,7.60
2024-02-06T05:16:02.210Z,6.85
2024-02-06T05:18:34.339Z,9.23
2024-02-06T05:21:06.398Z,6.43
2024-02-06T05:23:38.416Z,10.45
2024-02-06T05:26:10.264Z,9.57
2024-02-06T05:28:42.261Z,6.57
2024-02-06T05:31:14.895Z,7.05
2024-02-06T05:33:46.854Z,10.52
2024-02-06T05:36:18.732Z,10.65
2024-02-06T05:38:50.626Z,7.82
2024-02-06T05:41:22.489Z,10.45
2024-02-06T05:43:54.296Z,8.60
2024-02-06T05:46:26.189Z,8.82
2024-02-06T05:48:59.082Z,8.20
2024-02-06T05:51:30.984Z,12.48
2024-02-06T05:54:02.825Z,13.80
2024-02-06T05:56:35.886Z,12.70
2024-02-06T05:59:07.725Z,11.45
2024-02-06T06:01:39.645Z,13.25
2024-02-06T06:04:11.723Z,15.90
2024-02-06T06:06:43.844Z,14.93
2024-02-06T06:09:15.776Z,17.88
2024-02-06T06:11:47.636Z,15.70
2024-02-06T06:14:19.502Z,13.70
2024-02-06T06:16:51.284Z,16.27
2024-02-06T06:19:23.284Z,12.70
2024-02-06T06:21:55.287Z,19.83
2024-02-06T06:24:27.213Z,17.95
2024-02-06T06:26:59.215Z,16.52
2024-02-06T06:29:31.096Z,16.98
2024-02-06T06:32:03.054Z,18.65
2024-02-06T06:34:35.034Z,16.00
2024-02-06T06:37:07.053Z,17.48
2024-02-06T06:39:38.940Z,18.48
2024-02-06T06:42:10.784Z,18.85
2024-02-06T06:44:43.124Z,15.73
2024-02-06T06:47:15.186Z,16.75
2024-02-06T06:49:47.118Z,13.50
2024-02-06T06:52:19.606Z,15.60
2024-02-06T06:54:51.496Z,14.70
2024-02-06T06:57:23.369Z,16.70
2024-02-06T06:59:55.291Z,14.98
2024-02-06T07:02:27.167Z,14.75
2024-02-06T07:05:02.921Z,16.92
2024-02-06T07:07:34.860Z,15.15
2024-02-06T07:10:08.049Z,15.27
2024-02-06T07:12:40.391Z,13.90
2024-02-06T07:15:12.250Z,13.88
2024-02-06T07:17:44.276Z,15.00
2024-02-06T07:20:16.360Z,17.02
2024-02-06T07:22:48.297Z,13.48
2024-02-06T07:25:20.716Z,14.40
2024-02-06T07:27:52.926Z,13.05
2024-02-06T07:30:33.402Z,16.33
2024-02-06T07:33:09.487Z,13.32
2024-02-06T07:35:41.477Z,13.77
2024-02-06T07:38:13.337Z,13.48
2024-02-06T07:40:45.374Z,13.15
2024-02-06T07:43:20.491Z,14.55
2024-02-06T07:45:52.929Z,11.32
2024-02-06T07:48:24.847Z,14.85
2024-02-06T07:50:56.768Z,14.20
2024-02-06T07:53:28.616Z,12.30
2024-02-06T07:56:00.715Z,10.65
2024-02-06T07:58:32.722Z,10.90
2024-02-06T08:01:05.108Z,12.18
2024-02-06T08:03:37.099Z,10.50
2024-02-06T08:06:09.453Z,11.63
2024-02-06T08:08:41.459Z,9.60
2024-02-06T08:11:13.287Z,8.75
2024-02-06T08:13:45.730Z,9.82
2024-02-06T08:16:19.236Z,14.10
2024-02-06T08:18:51.417Z,11.20
2024-02-06T08:21:23.347Z,8.73
2024-02-06T08:23:56.351Z,9.40
2024-02-06T08:26:28.263Z,7.63
2024-02-06T08:29:00.200Z,7.45
2024-02-06T08:31:32.542Z,9.73
2024-02-06T08:34:04.544Z,6.93
2024-02-06T08:36:36.564Z,7.53
2024-02-06T08:39:08.537Z,9.02
2024-02-06T08:41:40.503Z,8.02
2024-02-06T08:44:12.517Z,8.13
2024-02-06T08:46:44.407Z,13.10
2024-02-06T08:49:16.308Z,9.13
2024-02-06T08:51:48.997Z,6.82
2024-02-06T08:54:24.078Z,10.68
2024-02-06T08:56:56.136Z,9.48
2024-02-06T08:59:28.086Z,9.50
2024-02-06T09:02:02.769Z,6.35
2024-02-06T09:04:34.954Z,8.50
2024-02-06T09:07:07.738Z,7.93
2024-02-06T09:09:40.571Z,9.05
2024-02-06T09:12:12.513Z,9.27
2024-02-06T09:14:44.495Z,10.65
2024-02-06T09:17:16.408Z,8.98
2024-02-06T09:19:48.369Z,13.75
2024-02-06T09:22:20.520Z,7.90
2024-02-06T09:24:52.554Z,7.07
2024-02-06T09:27:24.561Z,8.52
2024-02-06T09:29:57.247Z,7.68
2024-02-06T09:32:30.049Z,6.07
2024-02-06T09:35:02.170Z,6.82
2024-02-06T09:37:35.481Z,7.53
2024-02-06T09:40:07.916Z,8.10
2024-02-06T09:42:40.121Z,9.05
2024-02-06T09:45:13.111Z,7.18
2024-02-06T09:47:45.056Z,8.60
2024-02-06T09:50:16.987Z,9.82
2024-02-06T09:52:51.782Z,10.60
2024-02-06T09:55:25.207Z,7.45
2024-02-06T09:57:59.284Z,10.77
2024-02-06T10:00:32.979Z,8.88
2024-02-06T10:03:22.923Z,8.50
2024-02-06T10:05:59.301Z,10.07
2024-02-06T10:08:31.343Z,6.95
2024-02-06T10:11:05.046Z,8.32
2024-02-06T10:13:37.324Z,8.45
2024-02-06T10:16:09.327Z,7.72
2024-02-06T10:18:54.950Z,10.35
2024-02-06T10:21:29.609Z,8.13
2024-02-06T10:24:06.473Z,8.40
2024-02-06T10:26:40.322Z,6.30
2024-02-06T10:29:19.088Z,7.97
2024-02-06T10:31:53.388Z,6.22
2024-02-06T10:34:30.816Z,8.07
2024-02-06T10:37:03.196Z,8.40
2024-02-06T10:39:35.440Z,8.13
2024-02-06T10:44:42.253Z,8.15
2024-02-06T10:47:17.374Z,6.78
2024-02-06T10:49:49.500Z,8.57
2024-02-06T10:52:21.512Z,11.52
2024-02-06T10:54:53.361Z,10.25
2024-02-06T10:57:28.149Z,8.05
2024-02-06T11:00:17.765Z,7.40
2024-02-06T11:02:54.150Z,8.35
2024-02-06T11:05:46.019Z,6.82
2024-02-06T11:08:21.585Z,7.63
2024-02-06T11:10:57.564Z,6.07
2024-02-06T11:13:33.087Z,5.47
2024-02-06T11:16:08.019Z,6.70
2024-02-06T11:18:54.806Z,6.03
2024-02-06T11:21:29.089Z,5.05
2024-02-06T11:24:01.197Z,7.88
2024-02-06T11:26:33.016Z,8.00
2024-02-06T11:29:08.361Z,9.55
2024-02-06T11:31:41.086Z,9.73
2024-02-06T11:34:15.549Z,6.90
2024-02-06T11:37:00.489Z,10.75
2024-02-06T11:39:32.166Z,7.85
2024-02-06T11:42:03.862Z,10.05
2024-02-06T11:44:35.501Z,9.32
2024-02-06T11:47:07.158Z,11.82
2024-02-06T11:49:38.857Z,12.52
2024-02-06T11:52:10.872Z,10.15
2024-02-06T11:54:42.567Z,8.65
2024-02-06T11:57:14.282Z,9.52
2024-02-06T11:59:46.058Z,6.70
2024-02-06T12:02:18.824Z,8.98
2024-02-06T12:04:50.571Z,10.25
2024-02-06T12:07:23.592Z,8.52
2024-02-06T12:09:56.029Z,10.10
2024-02-06T12:12:27.697Z,6.40
2024-02-06T12:14:59.381Z,7.50
2024-02-06T12:17:32.451Z,7.82
2024-02-06T12:20:08.996Z,7.10
2024-02-06T12:22:41.604Z,9.30
2024-02-06T12:25:16.787Z,9.90
2024-02-06T12:27:57.160Z,8.30
2024-02-06T12:30:32.482Z,6.00
2024-02-06T12:33:04.303Z,6.80
2024-02-06T12:35:37.184Z,8.88
2024-02-06T12:38:12.489Z,7.03
2024-02-06T12:40:44.983Z,6.55
2024-02-06T12:43:18.114Z,6.88
2024-02-06T12:45:49.839Z,9.43
2024-02-06T12:48:21.671Z,7.07
2024-02-06T12:50:53.566Z,5.28
2024-02-06T12:53:26.532Z,8.32
2024-02-06T12:55:58.400Z,6.53
2024-02-06T12:58:32.013Z,8.63
2024-02-06T13:01:04.059Z,9.05
2024-02-06T13:03:42.311Z,7.63
2024-02-06T13:06:14.176Z,5.93
2024-02-06T13:08:46.747Z,6.70
2024-02-06T13:11:18.980Z,11.80
2024-02-06T13:13:54.659Z,4.82
2024-02-06T13:16:29.080Z,6.97
2024-02-06T13:19:01.802Z,8.13
2024-02-06T13:21:42.453Z,5.40
2024-02-06T13:24:14.084Z,8.07
2024-02-06T13:26:45.797Z,9.18
2024-02-06T13:29:17.783Z,15.20
2024-02-06T13:31:49.869Z,8.25
2024-02-06T13:34:21.708Z,10.32
2024-02-06T13:36:53.425Z,8.45
2024-02-06T13:39:25.247Z,14.82
2024-02-06T13:41:56.852Z,8.85
2024-02-06T13:44:28.441Z,6.35
2024-02-06T13:47:00.116Z,9.23
2024-02-06T13:49:33.211Z,9.43
2024-02-06T13:52:05.085Z,7.28
2024-02-06T13:54:37.740Z,7.20
2024-02-06T13:57:09.512Z,10.35
2024-02-06T13:59:41.194Z,11.40
2024-02-06T14:02:13.016Z,5.88
2024-02-06T14:04:44.741Z,7.95
2024-02-06T14:07:17.142Z,5.95
2024-02-06T14:09:49.148Z,8.30
2024-02-06T14:12:23.805Z,7.70
2024-02-06T14:14:58.285Z,6.70
2024-02-06T14:17:29.934Z,6.55
2024-02-06T14:20:02.254Z,8.07
2024-02-06T14:22:34.507Z,7.63
2024-02-06T14:25:06.458Z,7.82
2024-02-06T14:27:38.368Z,8.27
2024-02-06T14:30:10.409Z,8.18
2024-02-06T14:32:43.267Z,10.02
2024-02-06T14:35:15.127Z,10.30
2024-02-06T14:37:47.345Z,10.82
2024-02-06T14:40:20.904Z,10.70
2024-02-06T14:42:52.520Z,10.45
2024-02-06T14:45:24.342Z,12.18
2024-02-06T14:47:56.387Z,12.38
2024-02-06T14:50:28.163Z,11.25
2024-02-06T14:53:00.128Z,13.70
2024-02-06T14:55:31.757Z,17.85
2024-02-06T14:58:03.468Z,13.30
2024-02-06T15:00:35.235Z,17.10
2024-02-06T15:03:08.860Z,12.82
2024-02-06T15:05:41.104Z,14.00
2024-02-06T15:08:12.863Z,13.85
2024-02-06T15:10:44.615Z,12.43
2024-02-06T15:13:16.245Z,10.07
2024-02-06T15:15:48.109Z,9.38
2024-02-06T15:18:20.618Z,13.27
2024-02-06T15:20:55.324Z,15.25
2024-02-06T15:23:29.036Z,7.47
2024-02-06T15:26:01.301Z,8.27
2024-02-06T15:28:33.021Z,10.45
2024-02-06T15:31:05.071Z,9.52
2024-02-06T15:33:36.847Z,11.30
2024-02-06T15:36:08.626Z,10.95
2024-02-06T15:38:41.444Z,11.20
2024-02-06T15:41:13.257Z,13.93
2024-02-06T15:43:45.092Z,12.80
2024-02-06T15:46:17.445Z,18.42
2024-02-06T15:48:49.167Z,19.63
2024-02-06T15:51:21.192Z,39.38
2024-02-06T15:53:53.341Z,38.33
2024-02-06T15:56:24.972Z,39.50
2024-02-06T15:58:56.831Z,24.23
2024-02-06T16:01:28.796Z,15.70
2024-02-06T16:04:01.068Z,11.02
2024-02-06T16:06:32.749Z,20.45
2024-02-06T16:09:05.165Z,42.45
2024-02-06T16:11:46.572Z,21.48
2024-02-06T16:14:18.447Z,45.17
2024-02-06T16:16:53.145Z,41.70
2024-02-06T16:19:31.276Z,45.65
2024-02-06T16:22:04.817Z,30.65
2024-02-06T16:24:36.662Z,28.08
2024-02-06T16:27:08.280Z,22.25
2024-02-06T16:29:39.845Z,18.27
2024-02-06T16:32:12.344Z,19.08
2024-02-06T16:34:48.997Z,21.80
2024-02-06T16:37:23.336Z,15.23
2024-02-06T16:39:54.931Z,11.45
2024-02-06T16:42:26.517Z,21.27
2024-02-06T16:44:58.091Z,15.05
2024-02-06T16:47:31.254Z,11.48
2024-02-06T16:50:02.964Z,11.70
2024-02-06T16:52:35.031Z,11.57
2024-02-06T16:55:07.049Z,11.13
2024-02-06T16:57:38.855Z,10.25
2024-02-06T17:00:11.085Z,11.40
2024-02-06T17:02:42.846Z,12.95
2024-02-06T17:05:18.726Z,9.73
2024-02-06T17:07:50.944Z,15.68
2024-02-06T17:10:23.129Z,8.85
2024-02-06T17:12:54.877Z,10.27
2024-02-06T17:15:26.583Z,10.60
2024-02-06T17:17:58.316Z,9.30
2024-02-06T17:20:30.139Z,8.43
2024-02-06T17:23:01.892Z,9.38
2024-02-06T17:25:33.801Z,14.50
2024-02-06T17:28:05.734Z,25.13
2024-02-06T17:30:38.588Z,8.82
2024-02-06T17:33:13.281Z,12.02
2024-02-06T17:35:45.128Z,13.25
2024-02-06T17:38:17.062Z,13.07
2024-02-06T17:40:48.786Z,9.07
2024-02-06T17:43:20.521Z,15.52
2024-02-06T17:45:52.098Z,9.63
2024-02-06T17:48:23.786Z,10.90
2024-02-06T17:50:57.706Z,11.60
2024-02-06T17:53:30.257Z,9.90
2024-02-06T17:56:02.000Z,11.30
2024-02-06T17:58:33.767Z,13.95
2024-02-06T18:01:06.975Z,12.18
2024-02-06T18:03:38.878Z,8.85
2024-02-06T18:06:10.527Z,11.13
2024-02-06T18:08:42.674Z,19.02
2024-02-06T18:11:14.393Z,13.18
2024-02-06T18:13:46.284Z,10.65
2024-02-06T18:16:18.103Z,8.15
2024-02-06T18:18:49.758Z,10.85
2024-02-06T18:21:21.426Z,12.63
2024-02-06T18:23:53.010Z,9.20
2024-02-06T18:26:24.650Z,9.02
2024-02-06T18:28:56.335Z,10.10
2024-02-06T18:31:28.097Z,10.40
2024-02-06T18:33:59.826Z,10.13
2024-02-06T18:36:31.504Z,8.07
2024-02-06T18:39:03.269Z,7.45
2024-02-06T18:41:38.680Z,11.55
2024-02-06T18:44:10.760Z,10.80
2024-02-06T18:46:44.113Z,9.85
2024-02-06T18:49:16.197Z,14.93
2024-02-06T18:51:48.154Z,9.38
2024-02-06T18:54:19.861Z,7.55
2024-02-06T18:56:51.566Z,9.85
2024-02-06T18:59:23.232Z,10.27
2024-02-06T19:01:54.959Z,8.02
2024-02-06T19:04:26.827Z,6.88
2024-02-06T19:06:58.725Z,7.95
2024-02-06T19:09:30.365Z,7.47
2024-02-06T19:12:02.076Z,8.80
2024-02-06T19:14:33.809Z,13.25
2024-02-06T19:17:05.576Z,9.73
2024-02-06T19:19:37.331Z,6.43
2024-02-06T19:22:09.006Z,8.90
2024-02-06T19:24:44.222Z,8.88
2024-02-06T19:27:15.878Z,7.65
2024-02-06T19:29:47.479Z,8.38
2024-02-06T19:32:19.047Z,8.48
2024-02-06T19:34:50.988Z,7.28
2024-02-06T19:37:22.673Z,8.50
2024-02-06T19:39:54.848Z,7.70
2024-02-06T19:42:26.487Z,8.48
2024-02-06T19:44:58.112Z,10.82
2024-02-06T19:47:29.727Z,11.63
2024-02-06T19:50:01.669Z,8.30
2024-02-06T19:52:33.716Z,9.77
2024-02-06T19:55:05.855Z,8.45
2024-02-06T19:57:39.872Z,8.05
2024-02-06T20:00:11.947Z,10.48
2024-02-06T20:02:43.714Z,7.63
2024-02-06T20:05:15.552Z,7.25
2024-02-06T20:07:47.439Z,6.30
2024-02-06T20:10:19.169Z,7.72
2024-02-06T20:12:50.867Z,7.38
2024-02-06T20:15:22.484Z,6.72
2024-02-06T20:17:55.938Z,8.73
2024-02-06T20:20:28.230Z,10.00
2024-02-06T20:23:00.093Z,6.43
2024-02-06T20:25:31.840Z,9.27
2024-02-06T20:28:03.841Z,7.07
2024-02-06T20:30:35.641Z,9.10
2024-02-06T20:33:08.271Z,9.88
2024-02-06T20:35:40.421Z,10.38
2024-02-06T20:38:12.118Z,7.35
2024-02-06T20:40:44.370Z,8.85
2024-02-06T20:43:16.097Z,7.18
2024-02-06T20:45:47.854Z,8.30
2024-02-06T20:48:21.254Z,7.07
2024-02-06T20:50:53.089Z,5.32
2024-02-06T20:53:25.047Z,6.10
2024-02-06T20:55:57.094Z,7.60
2024-02-06T20:58:28.797Z,6.97
2024-02-06T21:01:00.487Z,8.35
2024-02-06T21:03:32.276Z,12.80
2024-02-06T21:06:05.067Z,7.80
2024-02-06T21:08:39.469Z,7.70
2024-02-06T21:11:11.102Z,6.90
2024-02-06T21:13:42.773Z,6.65
2024-02-06T21:16:14.578Z,6.60
2024-02-06T21:18:46.481Z,7.95
2024-02-06T21:21:18.207Z,6.07
2024-02-06T21:23:50.210Z,7.05
2024-02-06T21:26:24.040Z,8.25
2024-02-06T21:28:55.750Z,8.25
2024-02-06T21:31:28.178Z,7.47
2024-02-06T21:34:00.619Z,16.55
2024-02-06T21:36:36.393Z,12.23
2024-02-06T21:39:08.248Z,8.95
2024-02-06T21:41:39.881Z,7.20
2024-02-06T21:44:11.544Z,7.32
2024-02-06T21:46:43.304Z,5.63
2024-02-06T21:49:15.197Z,7.00
2024-02-06T21:51:46.861Z,6.90
2024-02-06T21:54:18.461Z,6.63
2024-02-06T21:56:50.059Z,5.90
2024-02-06T21:59:21.670Z,8.27
2024-02-06T22:01:53.353Z,6.40
2024-02-06T22:04:25.154Z,4.95
2024-02-06T22:06:56.918Z,6.63
2024-02-06T22:09:28.619Z,15.50
2024-02-06T22:12:00.230Z,8.13
2024-02-06T22:14:31.996Z,5.32
2024-02-06T22:17:05.237Z,8.15
2024-02-06T22:19:37.732Z,9.80
2024-02-06T22:22:09.470Z,6.97
2024-02-06T22:24:44.888Z,6.30
2024-02-06T22:27:17.880Z,8.88
2024-02-06T22:29:49.501Z,7.70
2024-02-06T22:32:21.531Z,6.05
2024-02-06T22:34:53.290Z,7.43
2024-02-06T22:37:24.928Z,7.30
2024-02-06T22:39:57.340Z,7.05
2024-02-06T22:42:29.072Z,6.25
2024-02-06T22:45:00.731Z,7.90
2024-02-06T22:47:32.418Z,8.10
2024-02-06T22:50:04.452Z,11.73
2024-02-06T22:52:36.234Z,9.43
2024-02-06T22:55:08.009Z,5.35
2024-02-06T22:57:40.440Z,5.75
2024-02-06T23:00:16.847Z,6.68
2024-02-06T23:02:48.468Z,7.78
2024-02-06T23:05:20.093Z,8.75
2024-02-06T23:07:51.976Z,8.85
2024-02-06T23:10:23.828Z,6.00
2024-02-06T23:12:55.605Z,11.13
2024-02-06T23:15:27.209Z,8.23
2024-02-06T23:17:59.252Z,6.72
2024-02-06T23:20:30.909Z,5.30
2024-02-06T23:23:02.531Z,5.07
2024-02-06T23:25:34.166Z,9.80
2024-02-06T23:28:06.147Z,12.55
2024-02-06T23:30:37.850Z,7.03
2024-02-06T23:33:09.756Z,8.55
2024-02-06T23:35:41.388Z,9.00
2024-02-06T23:38:13.008Z,5.95
2024-02-06T23:40:44.653Z,6.28
2024-02-06T23:43:16.525Z,7.32
2024-02-06T23:45:48.145Z,5.07
2024-02-06T23:48:19.760Z,7.50
2024-02-06T23:50:51.445Z,7.18
2024-02-06T23:53:23.091Z,5.45
2024-02-06T23:55:54.746Z,7.53
2024-02-06T23:58:27.137Z,8.90
